createdAt,value
2023-06-12T00:00:21.045Z,17.00
2023-06-12T00:02:23.229Z,17.00
2023-06-12T00:04:24.980Z,17.00
2023-06-12T00:06:29.339Z,16.90
2023-06-12T00:08:33.779Z,16.90
2023-06-12T00:10:36.100Z,16.90
2023-06-12T00:12:37.996Z,16.80
2023-06-12T00:14:39.797Z,16.80
2023-06-12T00:16:41.589Z,16.80
2023-06-12T00:18:43.676Z,16.70
2023-06-12T00:20:45.468Z,16.70
2023-06-12T00:22:47.146Z,16.70
2023-06-12T00:24:48.850Z,16.70
2023-06-12T00:26:50.616Z,16.70
2023-06-12T00:28:52.325Z,16.70
2023-06-12T00:30:54.177Z,16.70
2023-06-12T00:32:56.119Z,16.60
2023-06-12T00:34:57.815Z,16.60
2023-06-12T00:36:59.595Z,16.60
2023-06-12T00:39:01.278Z,16.50
2023-06-12T00:41:03.752Z,16.50
2023-06-12T00:43:06.506Z,16.50
2023-06-12T00:45:09.056Z,16.50
2023-06-12T00:47:12.128Z,16.50
2023-06-12T00:49:13.879Z,16.40
2023-06-12T00:51:18.157Z,16.40
2023-06-12T00:53:20.460Z,16.40
2023-06-12T00:55:22.207Z,16.30
2023-06-12T00:57:24.377Z,16.30
2023-06-12T00:59:26.799Z,16.30
2023-06-12T01:01:30.643Z,16.30
2023-06-12T01:03:33.248Z,16.30
2023-06-12T01:05:38.825Z,16.30
2023-06-12T01:07:59.651Z,16.20
2023-06-12T01:10:14.659Z,16.30
2023-06-12T01:12:18.401Z,16.30
2023-06-12T01:14:22.031Z,16.30
2023-06-12T01:16:24.454Z,16.20
2023-06-12T01:18:26.860Z,16.20
2023-06-12T01:20:28.588Z,16.20
2023-06-12T01:22:34.163Z,16.20
2023-06-12T01:24:48.053Z,16.20
2023-06-12T01:27:24.851Z,16.20
2023-06-12T01:29:44.913Z,16.20
2023-06-12T01:32:04.705Z,16.20
2023-06-12T01:34:29.746Z,16.20
2023-06-12T01:36:42.289Z,16.20
2023-06-12T01:38:47.024Z,16.20
2023-06-12T01:40:50.246Z,16.20
2023-06-12T01:42:52.211Z,16.20
2023-06-12T01:44:54.638Z,16.20
2023-06-12T01:46:56.367Z,16.10
2023-06-12T01:48:58.116Z,16.10
2023-06-12T01:50:59.836Z,16.10
2023-06-12T01:53:02.966Z,16.00
2023-06-12T01:55:06.104Z,16.00
2023-06-12T01:57:08.034Z,16.00
2023-06-12T01:59:09.792Z,16.00
2023-06-12T02:01:15.805Z,15.90
2023-06-12T02:03:18.515Z,15.90
2023-06-12T02:05:21.178Z,15.90
2023-06-12T02:07:23.080Z,16.00
2023-06-12T02:09:24.783Z,15.90
2023-06-12T02:11:26.685Z,15.90
2023-06-12T02:13:28.372Z,15.90
2023-06-12T02:15:30.100Z,15.90
2023-06-12T02:17:33.662Z,15.90
2023-06-12T02:19:35.637Z,15.80
2023-06-12T02:21:37.398Z,15.80
2023-06-12T02:23:39.202Z,15.80
2023-06-12T02:25:40.888Z,15.80
2023-06-12T02:27:42.675Z,15.80
2023-06-12T02:29:44.432Z,15.70
2023-06-12T02:31:46.199Z,15.60
2023-06-12T02:33:47.923Z,15.60
2023-06-12T02:35:49.685Z,15.50
2023-06-12T02:37:51.342Z,15.50
2023-06-12T02:39:52.984Z,15.50
2023-06-12T02:41:54.836Z,15.40
2023-06-12T02:43:56.499Z,15.40
2023-06-12T02:45:58.172Z,15.40
2023-06-12T02:48:00.178Z,15.40
2023-06-12T02:50:02.241Z,15.40
2023-06-12T02:52:04.196Z,15.30
2023-06-12T02:54:06.615Z,15.30
2023-06-12T02:56:08.372Z,15.20
2023-06-12T02:58:10.119Z,15.20
2023-06-12T03:00:14.216Z,15.10
2023-06-12T03:02:16.084Z,15.10
2023-06-12T03:04:22.781Z,15.10
2023-06-12T03:06:29.714Z,15.10
2023-06-12T03:08:32.152Z,15.10
2023-06-12T03:10:33.845Z,15.00
2023-06-12T03:12:36.395Z,15.10
2023-06-12T03:14:39.665Z,15.10
2023-06-12T03:16:41.442Z,15.10
2023-06-12T03:18:43.412Z,15.10
2023-06-12T03:20:45.101Z,15.10
2023-06-12T03:22:46.841Z,15.10
2023-06-12T03:24:54.645Z,15.10
2023-06-12T03:27:00.228Z,15.00
2023-06-12T03:29:02.633Z,15.00
2023-06-12T03:31:04.664Z,15.00
2023-06-12T03:33:06.484Z,15.00
2023-06-12T03:35:08.467Z,15.10
2023-06-12T03:37:10.437Z,15.10
2023-06-12T03:39:12.298Z,15.10
2023-06-12T03:41:14.122Z,15.20
2023-06-12T03:43:15.842Z,15.20
2023-06-12T03:45:17.724Z,15.20
2023-06-12T03:47:19.457Z,15.20
2023-06-12T03:49:22.185Z,15.10
2023-06-12T03:51:24.432Z,15.10
2023-06-12T03:53:26.323Z,15.10
2023-06-12T03:55:28.052Z,15.10
2023-06-12T03:57:29.902Z,15.10
2023-06-12T03:59:31.631Z,15.10
2023-06-12T04:01:33.437Z,15.10
2023-06-12T04:03:35.963Z,15.20
2023-06-12T04:05:38.614Z,15.20
2023-06-12T04:07:40.831Z,15.20
2023-06-12T04:09:42.481Z,15.20
2023-06-12T04:11:44.901Z,15.30
2023-06-12T04:13:46.753Z,15.30
2023-06-12T04:15:48.739Z,15.30
2023-06-12T04:17:50.641Z,15.20
2023-06-12T04:19:52.371Z,15.20
2023-06-12T04:21:55.385Z,15.30
2023-06-12T04:23:57.114Z,15.30
2023-06-12T04:26:06.372Z,15.40
2023-06-12T04:28:09.531Z,15.40
2023-06-12T04:30:11.829Z,15.40
2023-06-12T04:32:14.847Z,15.40
2023-06-12T04:34:17.241Z,15.40
2023-06-12T04:36:19.872Z,15.40
2023-06-12T04:38:21.778Z,15.50
2023-06-12T04:40:27.914Z,15.50
2023-06-12T04:42:33.014Z,15.60
2023-06-12T04:44:35.974Z,15.60
2023-06-12T04:46:37.640Z,15.70
2023-06-12T04:48:40.008Z,15.70
2023-06-12T04:50:42.047Z,15.70
2023-06-12T04:52:43.750Z,15.80
2023-06-12T04:54:45.738Z,15.80
2023-06-12T04:56:49.153Z,15.80
2023-06-12T04:58:51.575Z,15.90
2023-06-12T05:00:57.307Z,15.90
2023-06-12T05:03:00.212Z,16.00
2023-06-12T05:05:03.291Z,16.10
2023-06-12T05:07:18.311Z,16.20
2023-06-12T05:09:20.752Z,16.20
2023-06-12T05:11:22.468Z,16.30
2023-06-12T05:13:24.154Z,16.40
2023-06-12T05:15:25.848Z,16.40
2023-06-12T05:17:28.687Z,16.50
2023-06-12T05:19:30.775Z,16.50
2023-06-12T05:21:32.472Z,16.60
2023-06-12T05:23:34.135Z,16.60
2023-06-12T05:25:35.877Z,16.70
2023-06-12T05:27:39.796Z,16.80
2023-06-12T05:29:43.412Z,16.80
2023-06-12T05:31:45.476Z,16.90
2023-06-12T05:33:47.253Z,16.90
2023-06-12T05:35:50.489Z,17.00
2023-06-12T05:37:52.519Z,17.00
2023-06-12T05:39:56.061Z,17.10
2023-06-12T05:41:57.738Z,17.10
2023-06-12T05:43:59.549Z,17.10
2023-06-12T05:46:01.288Z,17.20
2023-06-12T05:48:03.239Z,17.20
2023-06-12T05:50:05.775Z,17.30
2023-06-12T05:52:08.260Z,17.30
2023-06-12T05:54:10.138Z,17.40
2023-06-12T05:56:14.039Z,17.40
2023-06-12T05:58:16.247Z,17.50
2023-06-12T06:00:18.690Z,17.50
2023-06-12T06:02:20.512Z,17.60
2023-06-12T06:04:22.570Z,17.70
2023-06-12T06:06:24.401Z,17.70
2023-06-12T06:08:26.341Z,17.70
2023-06-12T06:10:28.449Z,17.80
2023-06-12T06:12:30.167Z,17.80
2023-06-12T06:14:31.881Z,17.90
2023-06-12T06:16:44.628Z,17.90
2023-06-12T06:18:54.862Z,18.00
2023-06-12T06:20:57.558Z,18.00
2023-06-12T06:22:59.425Z,18.10
2023-06-12T06:25:01.092Z,18.10
2023-06-12T06:27:03.664Z,18.20
2023-06-12T06:29:13.713Z,18.20
2023-06-12T06:31:16.944Z,18.30
2023-06-12T06:33:18.732Z,18.40
2023-06-12T06:35:20.601Z,18.40
2023-06-12T06:37:22.330Z,18.50
2023-06-12T06:39:24.079Z,18.60
2023-06-12T06:41:27.944Z,18.60
2023-06-12T06:43:29.980Z,18.70
2023-06-12T06:45:31.772Z,18.80
2023-06-12T06:47:34.588Z,18.80
2023-06-12T06:49:36.595Z,19.00
2023-06-12T06:51:38.393Z,19.30
2023-06-12T06:53:40.121Z,20.30
2023-06-12T06:55:43.470Z,22.00
2023-06-12T06:57:45.113Z,23.70
2023-06-12T06:59:46.774Z,25.10
2023-06-12T07:01:48.716Z,26.30
2023-06-12T07:03:51.633Z,27.20
2023-06-12T07:05:53.359Z,27.80
2023-06-12T07:08:01.707Z,28.40
2023-06-12T07:10:04.294Z,29.00
2023-06-12T07:12:06.669Z,29.60
2023-06-12T07:14:08.441Z,29.90
2023-06-12T07:16:10.277Z,30.00
2023-06-12T07:18:12.496Z,30.40
2023-06-12T07:20:14.296Z,30.90
2023-06-12T07:22:15.979Z,31.00
2023-06-12T07:24:22.055Z,31.10
2023-06-12T07:26:29.317Z,31.40
2023-06-12T07:28:31.964Z,31.60
2023-06-12T07:30:35.036Z,32.00
2023-06-12T07:32:37.077Z,32.30
2023-06-12T07:34:38.787Z,32.50
2023-06-12T07:36:40.451Z,32.80
2023-06-12T07:38:42.920Z,33.20
2023-06-12T07:40:44.651Z,33.40
2023-06-12T07:42:46.401Z,33.30
2023-06-12T07:44:48.077Z,33.10
2023-06-12T07:46:49.843Z,33.10
2023-06-12T07:48:51.751Z,33.30
2023-06-12T07:50:53.551Z,33.30
2023-06-12T07:52:55.359Z,33.30
2023-06-12T07:54:57.197Z,33.20
2023-06-12T07:56:59.060Z,33.30
2023-06-12T07:59:11.880Z,33.40
2023-06-12T08:01:15.037Z,33.40
2023-06-12T08:03:30.134Z,33.40
2023-06-12T08:05:35.782Z,33.80
2023-06-12T08:07:37.770Z,34.10
2023-06-12T08:09:41.863Z,34.20
2023-06-12T08:11:43.733Z,34.20
2023-06-12T08:13:45.513Z,34.00
2023-06-12T08:15:47.332Z,34.00
2023-06-12T08:17:49.139Z,34.00
2023-06-12T08:19:51.012Z,34.20
2023-06-12T08:21:53.107Z,34.20
2023-06-12T08:23:54.926Z,34.30
2023-06-12T08:25:56.667Z,34.30
2023-06-12T08:27:59.386Z,34.80
2023-06-12T08:30:05.467Z,35.20
2023-06-12T08:32:08.028Z,35.20
2023-06-12T08:34:09.756Z,35.20
2023-06-12T08:36:13.305Z,35.00
2023-06-12T08:38:15.020Z,34.90
2023-06-12T08:40:17.090Z,34.60
2023-06-12T08:42:19.348Z,34.80
2023-06-12T08:44:23.671Z,35.20
2023-06-12T08:46:32.452Z,35.60
2023-06-12T08:48:34.624Z,35.70
2023-06-12T08:50:36.660Z,35.90
2023-06-12T08:52:38.953Z,35.70
2023-06-12T08:54:41.849Z,35.30
2023-06-12T08:56:44.413Z,34.70
2023-06-12T08:58:46.670Z,34.60
2023-06-12T09:00:48.767Z,34.20
2023-06-12T09:02:54.520Z,33.50
2023-06-12T09:05:03.605Z,33.10
2023-06-12T09:07:05.690Z,32.80
2023-06-12T09:09:07.495Z,32.80
2023-06-12T09:11:10.502Z,32.60
2023-06-12T09:13:12.262Z,32.80
2023-06-12T09:15:18.863Z,32.10
2023-06-12T09:17:20.813Z,32.30
2023-06-12T09:19:22.522Z,32.30
2023-06-12T09:21:25.104Z,31.80
2023-06-12T09:23:26.852Z,31.00
2023-06-12T09:25:45.538Z,30.30
2023-06-12T09:27:51.633Z,30.80
2023-06-12T09:29:59.324Z,31.80
2023-06-12T09:32:02.305Z,32.60
2023-06-12T09:34:04.233Z,33.50
2023-06-12T09:36:06.654Z,34.00
2023-06-12T09:38:11.772Z,33.40
2023-06-12T09:40:15.346Z,33.30
2023-06-12T09:42:18.734Z,33.80
2023-06-12T09:44:22.417Z,34.00
2023-06-12T09:46:28.395Z,34.50
2023-06-12T09:48:35.678Z,34.90
2023-06-12T09:50:37.434Z,35.10
2023-06-12T09:52:44.311Z,35.40
2023-06-12T09:54:47.207Z,35.60
2023-06-12T09:56:53.049Z,35.80
2023-06-12T09:58:56.128Z,35.80
2023-06-12T10:00:58.244Z,35.90
2023-06-12T10:03:05.390Z,36.00
2023-06-12T10:05:13.713Z,36.10
2023-06-12T10:07:19.781Z,36.20
2023-06-12T10:09:22.093Z,35.50
2023-06-12T10:11:24.490Z,35.70
2023-06-12T10:13:27.073Z,35.40
2023-06-12T10:15:33.056Z,35.50
2023-06-12T10:17:36.073Z,35.70
2023-06-12T10:19:41.402Z,35.70
2023-06-12T10:21:44.113Z,35.90
2023-06-12T10:23:46.040Z,35.30
2023-06-12T10:25:49.085Z,34.30
2023-06-12T10:27:54.681Z,33.60
2023-06-12T10:30:00.586Z,32.70
2023-06-12T10:32:10.385Z,32.70
2023-06-12T10:34:16.502Z,32.70
2023-06-12T10:36:18.847Z,33.10
2023-06-12T10:38:22.041Z,33.50
2023-06-12T10:40:37.672Z,33.90
2023-06-12T10:42:53.009Z,34.10
2023-06-12T10:44:55.094Z,34.00
2023-06-12T10:46:56.800Z,34.10
2023-06-12T10:49:05.723Z,34.30
2023-06-12T10:51:11.910Z,34.80
2023-06-12T10:53:16.204Z,35.20
2023-06-12T10:55:22.521Z,35.70
2023-06-12T10:57:29.067Z,35.60
2023-06-12T10:59:37.277Z,35.50
2023-06-12T11:01:40.384Z,35.60
2023-06-12T11:03:44.084Z,35.70
2023-06-12T11:05:52.925Z,35.70
2023-06-12T11:08:02.611Z,35.40
2023-06-12T11:10:10.966Z,35.50
2023-06-12T11:12:12.632Z,35.70
2023-06-12T11:14:14.462Z,35.70
2023-06-12T11:16:17.174Z,35.50
2023-06-12T11:18:19.559Z,35.20
2023-06-12T11:20:23.973Z,34.90
2023-06-12T11:22:25.700Z,33.70
2023-06-12T11:24:28.175Z,32.90
2023-06-12T11:26:32.677Z,32.80
2023-06-12T11:28:35.212Z,32.80
2023-06-12T11:30:41.281Z,33.00
2023-06-12T11:32:51.902Z,33.20
2023-06-12T11:34:54.078Z,33.30
2023-06-12T11:36:56.349Z,33.50
2023-06-12T11:41:02.855Z,34.00
2023-06-12T11:43:06.481Z,34.10
2023-06-12T11:45:13.039Z,34.10
2023-06-12T11:49:21.952Z,34.30
2023-06-12T11:51:23.802Z,34.10
2023-06-12T11:53:25.586Z,33.80
2023-06-12T11:57:32.350Z,33.60
2023-06-12T11:59:41.245Z,33.50
2023-06-12T12:01:46.497Z,33.80
2023-06-12T12:03:48.498Z,33.90
2023-06-12T12:05:51.597Z,34.00
2023-06-12T12:07:57.286Z,33.80
2023-06-12T12:10:08.000Z,34.00
2023-06-12T12:12:11.375Z,34.00
2023-06-12T12:14:13.140Z,34.20
2023-06-12T12:16:14.880Z,34.30
2023-06-12T12:18:18.777Z,34.30
2023-06-12T12:20:23.421Z,34.20
2023-06-12T12:22:25.179Z,34.50
2023-06-12T12:24:27.153Z,34.60
2023-06-12T12:26:29.557Z,34.60
2023-06-12T12:28:31.335Z,34.60
2023-06-12T12:30:33.051Z,34.60
2023-06-12T12:32:34.820Z,34.60
2023-06-12T12:34:36.637Z,34.50
2023-06-12T12:36:38.424Z,34.70
2023-06-12T12:38:40.225Z,34.80
2023-06-12T12:40:41.928Z,34.90
2023-06-12T12:42:50.820Z,35.10
2023-06-12T12:44:52.636Z,35.20
2023-06-12T12:46:54.344Z,35.40
2023-06-12T12:48:56.141Z,35.50
2023-06-12T12:51:09.135Z,35.40
2023-06-12T12:53:13.235Z,35.20
2023-06-12T12:55:15.016Z,34.70
2023-06-12T12:57:16.778Z,34.90
2023-06-12T12:59:18.501Z,34.60
2023-06-12T13:01:20.625Z,34.90
2023-06-12T13:03:23.572Z,35.10
2023-06-12T13:05:25.640Z,35.30
2023-06-12T13:07:28.530Z,35.50
2023-06-12T13:09:31.008Z,35.70
2023-06-12T13:11:32.657Z,35.80
2023-06-12T13:13:34.457Z,35.80
2023-06-12T13:15:36.468Z,36.00
2023-06-12T13:17:38.566Z,36.30
2023-06-12T13:19:40.537Z,36.20
2023-06-12T13:21:43.685Z,36.30
2023-06-12T13:23:45.527Z,36.60
2023-06-12T13:25:47.531Z,36.60
2023-06-12T13:27:49.397Z,36.20
2023-06-12T13:29:51.657Z,36.10
2023-06-12T13:31:53.435Z,35.80
2023-06-12T13:33:55.177Z,35.80
2023-06-12T13:35:56.892Z,35.70
2023-06-12T13:37:58.598Z,35.40
2023-06-12T13:40:01.421Z,35.40
2023-06-12T13:42:03.279Z,35.40
2023-06-12T13:44:05.502Z,35.50
2023-06-12T13:46:09.757Z,35.20
2023-06-12T13:48:12.628Z,34.90
2023-06-12T13:50:14.647Z,34.90
2023-06-12T13:52:16.684Z,34.60
2023-06-12T13:54:18.423Z,34.30
2023-06-12T13:56:23.553Z,34.20
2023-06-12T13:58:25.701Z,34.00
2023-06-12T14:00:27.986Z,34.00
2023-06-12T14:02:29.765Z,34.30
2023-06-12T14:04:32.560Z,34.50
2023-06-12T14:06:34.680Z,34.60
2023-06-12T14:08:41.842Z,34.70
2023-06-12T14:10:44.189Z,34.70
2023-06-12T14:12:46.042Z,34.40
2023-06-12T14:14:50.121Z,34.30
2023-06-12T14:16:52.303Z,34.30
2023-06-12T14:18:54.984Z,34.40
2023-06-12T14:20:57.191Z,34.30
2023-06-12T14:23:02.627Z,34.00
2023-06-12T14:25:05.143Z,34.00
2023-06-12T14:27:08.503Z,34.20
2023-06-12T14:29:10.626Z,34.20
2023-06-12T14:31:12.488Z,34.20
2023-06-12T14:33:14.289Z,34.20
2023-06-12T14:35:16.657Z,34.10
2023-06-12T14:37:18.577Z,34.20
2023-06-12T14:39:20.356Z,34.10
2023-06-12T14:41:22.057Z,33.80
2023-06-12T14:43:23.749Z,33.60
2023-06-12T14:45:25.886Z,33.50
2023-06-12T14:47:27.681Z,33.20
2023-06-12T14:49:29.573Z,33.20
2023-06-12T14:51:31.270Z,33.20
2023-06-12T14:53:34.576Z,33.20
2023-06-12T14:55:38.316Z,33.10
2023-06-12T14:57:41.983Z,32.90
2023-06-12T14:59:43.665Z,32.90
2023-06-12T15:01:45.410Z,33.10
2023-06-12T15:03:47.187Z,33.10
2023-06-12T15:05:48.944Z,33.20
2023-06-12T15:07:50.595Z,33.10
2023-06-12T15:09:52.308Z,33.10
2023-06-12T15:11:54.032Z,33.00
2023-06-12T15:13:55.817Z,32.90
2023-06-12T15:15:57.593Z,33.00
2023-06-12T15:17:59.359Z,33.00
2023-06-12T15:20:01.159Z,32.90
2023-06-12T15:22:03.548Z,32.80
2023-06-12T15:24:05.812Z,32.50
2023-06-12T15:26:07.509Z,32.40
2023-06-12T15:28:09.238Z,32.10
2023-06-12T15:30:11.346Z,31.90
2023-06-12T15:32:12.996Z,31.90
2023-06-12T15:34:14.765Z,32.00
2023-06-12T15:36:16.632Z,31.90
2023-06-12T15:38:35.451Z,31.60
2023-06-12T15:40:37.321Z,31.60
2023-06-12T15:42:39.896Z,31.70
2023-06-12T15:44:42.981Z,31.90
2023-06-12T15:46:45.437Z,31.90
2023-06-12T15:48:47.287Z,31.90
2023-06-12T15:50:49.019Z,31.90
2023-06-12T15:52:50.870Z,31.40
2023-06-12T15:54:52.586Z,31.10
2023-06-12T15:56:54.301Z,31.10
2023-06-12T15:58:57.167Z,31.00
2023-06-12T16:00:59.849Z,30.90
2023-06-12T16:03:01.681Z,31.30
2023-06-12T16:05:03.653Z,31.50
2023-06-12T16:07:05.695Z,31.60
2023-06-12T16:09:07.393Z,31.80
2023-06-12T16:11:09.156Z,31.90
2023-06-12T16:13:11.075Z,31.90
2023-06-12T16:15:13.185Z,31.70
2023-06-12T16:17:15.100Z,31.40
2023-06-12T16:19:16.871Z,31.50
2023-06-12T16:21:18.587Z,31.30
2023-06-12T16:23:20.340Z,31.20
2023-06-12T16:25:22.204Z,31.20
2023-06-12T16:27:23.880Z,31.10
2023-06-12T16:29:25.614Z,30.90
2023-06-12T16:31:27.400Z,30.80
2023-06-12T16:33:29.431Z,30.80
2023-06-12T16:35:31.162Z,30.70
2023-06-12T16:37:32.934Z,30.60
2023-06-12T16:39:37.886Z,30.60
2023-06-12T16:41:39.610Z,30.50
2023-06-12T16:43:42.058Z,30.50
2023-06-12T16:45:43.813Z,30.50
2023-06-12T16:47:45.752Z,30.30
2023-06-12T16:49:47.541Z,30.30
2023-06-12T16:51:49.255Z,30.20
2023-06-12T16:53:51.226Z,30.00
2023-06-12T16:55:52.964Z,29.90
2023-06-12T16:57:54.735Z,29.80
2023-06-12T16:59:56.503Z,29.50
2023-06-12T17:01:58.385Z,29.10
2023-06-12T17:04:00.495Z,28.70
2023-06-12T17:06:02.321Z,28.20
2023-06-12T17:08:04.261Z,27.80
2023-06-12T17:10:06.531Z,27.40
2023-06-12T17:12:08.729Z,26.90
2023-06-12T17:14:11.128Z,26.60
2023-06-12T17:16:13.262Z,26.40
2023-06-12T17:18:16.315Z,26.10
2023-06-12T17:20:18.037Z,25.80
2023-06-12T17:22:19.755Z,25.60
2023-06-12T17:24:21.523Z,25.40
2023-06-12T17:26:23.345Z,25.20
2023-06-12T17:28:25.044Z,25.00
2023-06-12T17:30:26.858Z,24.90
2023-06-12T17:32:28.537Z,24.70
2023-06-12T17:34:30.209Z,24.50
2023-06-12T17:36:32.025Z,24.30
2023-06-12T17:38:34.110Z,24.20
2023-06-12T17:40:35.998Z,24.10
2023-06-12T17:42:37.701Z,24.00
2023-06-12T17:44:44.336Z,23.90
2023-06-12T17:46:46.023Z,23.80
2023-06-12T17:48:47.934Z,23.70
2023-06-12T17:50:49.829Z,23.60
2023-06-12T17:52:51.976Z,23.60
2023-06-12T17:54:53.658Z,23.50
2023-06-12T17:56:57.417Z,23.40
2023-06-12T17:58:59.179Z,23.30
2023-06-12T18:01:00.927Z,23.20
2023-06-12T18:03:02.721Z,23.10
2023-06-12T18:05:04.689Z,23.00
2023-06-12T18:07:07.157Z,22.90
2023-06-12T18:09:08.986Z,22.80
2023-06-12T18:11:10.819Z,22.70
2023-06-12T18:13:12.564Z,22.70
2023-06-12T18:15:14.532Z,22.60
2023-06-12T18:17:16.726Z,22.50
2023-06-12T18:19:18.753Z,22.40
2023-06-12T18:21:20.540Z,22.30
2023-06-12T18:23:22.299Z,22.20
2023-06-12T18:25:24.132Z,22.10
2023-06-12T18:27:26.441Z,22.00
2023-06-12T18:29:28.116Z,21.90
2023-06-12T18:31:32.743Z,21.80
2023-06-12T18:33:35.526Z,21.80
2023-06-12T18:35:37.426Z,21.80
2023-06-12T18:37:39.217Z,21.70
2023-06-12T18:39:41.721Z,21.60
2023-06-12T18:41:43.552Z,21.60
2023-06-12T18:43:45.256Z,21.50
2023-06-12T18:45:47.950Z,21.40
2023-06-12T18:47:49.955Z,21.30
2023-06-12T18:49:51.732Z,21.30
2023-06-12T18:51:53.406Z,21.20
2023-06-12T18:53:55.270Z,21.10
2023-06-12T18:55:56.981Z,21.10
2023-06-12T18:57:58.824Z,21.00
2023-06-12T19:00:00.536Z,21.00
2023-06-12T19:02:02.248Z,20.90
2023-06-12T19:04:04.194Z,20.80
2023-06-12T19:06:06.003Z,20.70
2023-06-12T19:08:08.005Z,20.60
2023-06-12T19:10:10.450Z,20.50
2023-06-12T19:12:12.424Z,20.40
2023-06-12T19:14:14.286Z,20.40
2023-06-12T19:16:16.330Z,20.30
2023-06-12T19:18:18.138Z,20.30
2023-06-12T19:20:19.864Z,20.20
2023-06-12T19:22:21.548Z,20.20
2023-06-12T19:24:23.336Z,20.10
2023-06-12T19:26:25.141Z,20.10
2023-06-12T19:28:27.507Z,20.10
2023-06-12T19:30:29.299Z,20.00
2023-06-12T19:32:31.075Z,19.90
2023-06-12T19:34:32.807Z,19.90
2023-06-12T19:36:35.149Z,19.80
2023-06-12T19:38:36.834Z,19.80
2023-06-12T19:40:38.587Z,19.80
2023-06-12T19:42:40.439Z,19.80
2023-06-12T19:44:42.265Z,19.80
2023-06-12T19:46:44.298Z,19.70
2023-06-12T19:48:46.140Z,19.60
2023-06-12T19:50:48.075Z,19.50
2023-06-12T19:52:50.788Z,19.50
2023-06-12T19:54:52.501Z,19.40
2023-06-12T19:56:54.354Z,19.30
2023-06-12T19:58:56.057Z,19.20
2023-06-12T20:00:57.983Z,19.20
2023-06-12T20:02:59.915Z,19.30
2023-06-12T20:05:01.680Z,19.20
2023-06-12T20:07:05.762Z,19.20
2023-06-12T20:09:07.648Z,19.20
2023-06-12T20:11:11.824Z,19.20
2023-06-12T20:13:13.602Z,19.10
2023-06-12T20:15:15.592Z,19.10
2023-06-12T20:17:17.704Z,19.10
2023-06-12T20:19:19.597Z,19.10
2023-06-12T20:21:21.465Z,19.00
2023-06-12T20:23:23.283Z,19.00
2023-06-12T20:25:29.796Z,18.90
2023-06-12T20:27:31.808Z,18.80
2023-06-12T20:29:38.431Z,18.80
2023-06-12T20:31:40.422Z,18.80
2023-06-12T20:33:42.203Z,18.90
2023-06-12T20:35:44.478Z,18.80
2023-06-12T20:37:46.198Z,18.80
2023-06-12T20:39:47.990Z,18.80
2023-06-12T20:41:49.737Z,18.80
2023-06-12T20:43:51.488Z,18.70
2023-06-12T20:45:55.069Z,18.70
2023-06-12T20:47:57.121Z,18.60
2023-06-12T20:49:59.122Z,18.60
2023-06-12T20:52:00.851Z,18.60
2023-06-12T20:54:02.611Z,18.60
2023-06-12T20:56:04.547Z,18.60
2023-06-12T20:58:06.345Z,18.50
2023-06-12T21:00:10.467Z,18.40
2023-06-12T21:02:12.381Z,18.40
2023-06-12T21:04:14.208Z,18.40
2023-06-12T21:06:16.169Z,18.30
2023-06-12T21:08:19.052Z,18.40
2023-06-12T21:10:21.093Z,18.30
2023-06-12T21:12:22.830Z,18.20
2023-06-12T21:14:24.755Z,18.10
2023-06-12T21:16:26.807Z,18.00
2023-06-12T21:18:28.563Z,18.00
2023-06-12T21:20:30.301Z,18.00
2023-06-12T21:22:40.417Z,18.00
2023-06-12T21:24:42.576Z,18.00
2023-06-12T21:26:44.778Z,18.00
2023-06-12T21:28:46.483Z,18.00
2023-06-12T21:30:48.391Z,18.00
2023-06-12T21:32:51.162Z,18.00
2023-06-12T21:34:52.930Z,18.00
2023-06-12T21:37:00.320Z,18.00
2023-06-12T21:39:15.134Z,17.90
2023-06-12T21:41:17.428Z,17.90
2023-06-12T21:43:19.091Z,17.90
2023-06-12T21:45:20.806Z,17.90
2023-06-12T21:47:22.495Z,17.80
2023-06-12T21:49:24.227Z,17.80
2023-06-12T21:51:25.930Z,17.80
2023-06-12T21:53:27.664Z,17.80
2023-06-12T21:55:29.456Z,17.70
2023-06-12T21:57:31.470Z,17.70
2023-06-12T21:59:33.430Z,17.60
2023-06-12T22:01:35.107Z,17.50
2023-06-12T22:03:36.884Z,17.50
2023-06-12T22:05:38.767Z,17.40
2023-06-12T22:07:40.751Z,17.40
2023-06-12T22:09:42.540Z,17.40
2023-06-12T22:11:45.590Z,17.40
2023-06-12T22:13:47.494Z,17.30
2023-06-12T22:15:49.397Z,17.40
2023-06-12T22:17:52.109Z,17.30
2023-06-12T22:19:57.137Z,17.30
2023-06-12T22:21:58.955Z,17.30
2023-06-12T22:24:00.861Z,17.20
2023-06-12T22:26:02.619Z,17.20
2023-06-12T22:28:04.592Z,17.20
2023-06-12T22:30:07.118Z,17.20
2023-06-12T22:32:09.431Z,17.10
2023-06-12T22:34:11.425Z,17.00
2023-06-12T22:36:13.129Z,17.10
2023-06-12T22:38:14.853Z,17.00
2023-06-12T22:40:17.436Z,17.10
2023-06-12T22:42:19.257Z,17.10
2023-06-12T22:44:20.945Z,17.10
2023-06-12T22:46:22.740Z,17.00
2023-06-12T22:48:31.349Z,17.00
2023-06-12T22:50:33.029Z,16.90
2023-06-12T22:52:41.200Z,16.80
2023-06-12T22:54:44.698Z,16.70
2023-06-12T22:56:46.424Z,16.70
2023-06-12T22:58:48.159Z,16.70
2023-06-12T23:00:49.865Z,16.70
2023-06-12T23:02:54.599Z,16.60
2023-06-12T23:04:58.870Z,16.60
2023-06-12T23:07:01.420Z,16.50
2023-06-12T23:09:03.834Z,16.50
2023-06-12T23:11:07.674Z,16.40
2023-06-12T23:13:09.363Z,16.40
2023-06-12T23:15:11.825Z,16.40
2023-06-12T23:17:18.140Z,16.40
2023-06-12T23:19:20.644Z,16.30
2023-06-12T23:21:25.115Z,16.30
2023-06-12T23:23:36.302Z,16.30
2023-06-12T23:25:40.093Z,16.20
2023-06-12T23:27:42.195Z,16.20
2023-06-12T23:29:45.699Z,16.10
2023-06-12T23:31:47.665Z,16.10
2023-06-12T23:33:49.641Z,16.10
2023-06-12T23:35:51.803Z,16.00
2023-06-12T23:37:53.991Z,16.00
2023-06-12T23:39:57.332Z,15.90
2023-06-12T23:42:07.030Z,15.80
2023-06-12T23:44:08.865Z,15.80
2023-06-12T23:46:12.426Z,15.70
2023-06-12T23:48:14.214Z,15.70
2023-06-12T23:50:16.312Z,15.60
2023-06-12T23:52:18.403Z,15.50
2023-06-12T23:54:20.241Z,15.50
2023-06-12T23:56:23.490Z,15.50
2023-06-12T23:58:25.519Z,15.50
